Time;durP1;ratioP1;P1;durP2;ratioP2;P2;SDS_P1;SDS_P2;PMS_P1;PMS_P2;Temp;Humidity;BMP_temperature;BMP_pressure;BME280_temperature;BME280_humidity;BME280_pressure;Samples;Min_cycle;Max_cycle;Signal;HPM_P1;HPM_P2
2023/09/12 00:01:05;;;;;;;14.17;12.97;;;20.30;99.90;;;;;;5013931;28;20268;-66
2023/09/12 00:03:31;;;;;;;15.60;13.50;;;20.40;99.90;;;;;;5014816;28;20178;-67
2023/09/12 00:05:58;;;;;;;14.47;12.90;;;20.30;99.90;;;;;;5015547;28;20421;-66
2023/09/12 00:08:24;;;;;;;15.47;13.97;;;20.30;99.90;;;;;;4996016;28;20180;-67
2023/09/12 00:11:04;;;;;;;13.17;11.83;;;20.30;99.90;;;;;;5015994;28;20433;-67
2023/09/12 00:13:30;;;;;;;19.37;15.73;;;20.30;99.90;;;;;;5013120;28;20185;-66
2023/09/12 00:15:56;;;;;;;14.30;12.90;;;20.20;99.90;;;;;;5023422;28;20500;-68
2023/09/12 00:18:22;;;;;;;14.00;12.60;;;20.20;99.90;;;;;;5020177;28;20851;-68
2023/09/12 00:20:47;;;;;;;14.20;12.90;;;20.10;99.90;;;;;;5022406;28;20433;-66
2023/09/12 00:23:13;;;;;;;16.23;13.73;;;20.10;99.90;;;;;;5023722;28;20666;-66
2023/09/12 00:25:38;;;;;;;14.57;13.17;;;20.00;99.90;;;;;;5013296;28;20245;-68
2023/09/12 00:28:04;;;;;;;15.87;14.30;;;20.00;99.90;;;;;;5013595;28;20714;-66
2023/09/12 00:30:29;;;;;;;15.10;13.70;;;20.00;99.90;;;;;;5013772;28;20252;-66
2023/09/12 00:32:55;;;;;;;15.30;13.83;;;20.00;99.90;;;;;;5013679;28;20187;-67
2023/09/12 00:35:20;;;;;;;20.30;18.23;;;20.00;99.90;;;;;;5011799;28;20233;-67
2023/09/12 00:37:46;;;;;;;20.10;14.60;;;20.00;99.90;;;;;;5011414;28;20577;-67
2023/09/12 00:40:11;;;;;;;14.93;13.53;;;20.10;99.90;;;;;;5011711;28;20234;-66
2023/09/12 00:42:37;;;;;;;15.87;14.20;;;20.00;99.90;;;;;;5013032;28;20189;-66
2023/09/12 00:45:02;;;;;;;18.67;16.00;;;20.00;99.90;;;;;;5013187;28;20210;-67
2023/09/12 00:47:29;;;;;;;18.47;13.90;;;19.90;99.90;;;;;;5011941;28;20671;-68
2023/09/12 00:49:56;;;;;;;16.27;13.27;;;19.90;99.90;;;;;;5012321;28;20230;-66
2023/09/12 00:52:24;;;;;;;12.87;11.70;;;19.90;99.90;;;;;;5012677;28;20484;-66
2023/09/12 00:54:50;;;;;;;14.07;12.67;;;20.00;99.90;;;;;;5013054;28;20516;-66
2023/09/12 00:57:16;;;;;;;14.77;13.47;;;19.90;99.90;;;;;;5012174;28;20837;-67
2023/09/12 00:59:42;;;;;;;13.33;12.10;;;20.00;99.90;;;;;;5009573;28;20464;-67
2023/09/12 01:02:08;;;;;;;14.93;12.90;;;19.80;99.90;;;;;;5012321;28;20175;-67
2023/09/12 01:04:35;;;;;;;14.23;12.93;;;20.00;99.90;;;;;;5014488;28;20513;-66
2023/09/12 01:07:02;;;;;;;14.80;13.17;;;19.70;99.90;;;;;;5016498;28;20175;-66
2023/09/12 01:09:28;;;;;;;14.80;11.40;;;19.70;99.90;;;;;;5012288;28;20928;-68
2023/09/12 01:11:54;;;;;;;14.60;13.13;;;19.80;99.90;;;;;;5011477;28;20520;-67
2023/09/12 01:14:20;;;;;;;17.13;13.83;;;19.50;99.90;;;;;;5012450;28;20218;-67
2023/09/12 01:16:45;;;;;;;19.47;14.00;;;19.40;99.90;;;;;;5013337;28;20473;-67
2023/09/12 01:19:14;;;;;;;14.93;13.50;;;19.40;99.90;;;;;;5010196;28;20245;-66
2023/09/12 01:22:10;;;;;;;14.40;12.90;;;19.40;99.90;;;;;;5010447;28;20198;-67
2023/09/12 01:24:38;;;;;;;14.40;13.10;;;19.30;99.90;;;;;;5011654;28;20930;-68
2023/09/12 01:27:21;;;;;;;14.77;13.43;;;19.20;99.90;;;;;;5013155;28;20434;-67
2023/09/12 01:29:50;;;;;;;16.33;14.77;;;19.20;99.90;;;;;;5004865;28;20480;-67
2023/09/12 01:32:18;;;;;;;14.80;13.40;;;19.30;99.90;;;;;;5013255;28;20455;-66
2023/09/12 01:34:44;;;;;;;18.40;14.93;;;19.30;99.90;;;;;;5012737;28;20430;-67
2023/09/12 01:37:09;;;;;;;14.37;12.50;;;19.40;99.90;;;;;;5011327;28;20444;-67
2023/09/12 01:39:35;;;;;;;15.80;14.40;;;19.70;99.90;;;;;;5009680;28;20589;-66
2023/09/12 01:42:01;;;;;;;15.83;14.40;;;19.60;99.90;;;;;;5012350;28;20274;-66
2023/09/12 01:44:29;;;;;;;15.40;13.27;;;19.50;99.90;;;;;;5014327;28;20214;-67
2023/09/12 01:46:57;;;;;;;14.70;13.10;;;19.60;99.90;;;;;;5019360;28;20857;-66
2023/09/12 01:49:24;;;;;;;16.27;14.67;;;19.60;99.90;;;;;;5012548;28;20458;-66
2023/09/12 01:51:50;;;;;;;14.77;13.20;;;19.70;99.90;;;;;;5011718;28;20714;-67
2023/09/12 01:54:17;;;;;;;14.77;13.20;;;19.70;99.90;;;;;;5013085;28;20454;-68
2023/09/12 01:56:43;;;;;;;15.27;13.70;;;19.60;99.90;;;;;;5013366;28;20513;-68
2023/09/12 01:59:09;;;;;;;16.03;13.77;;;19.80;99.90;;;;;;5010455;28;20469;-67
2023/09/12 02:01:34;;;;;;;15.83;13.37;;;19.50;99.90;;;;;;5015385;28;20539;-67
2023/09/12 02:04:00;;;;;;;22.47;13.50;;;19.70;99.90;;;;;;5018087;28;20171;-67
2023/09/12 02:06:25;;;;;;;14.40;13.23;;;19.40;99.90;;;;;;5013278;28;20194;-67
2023/09/12 02:08:51;;;;;;;14.00;12.90;;;19.50;99.90;;;;;;5012391;28;20684;-66
2023/09/12 02:11:16;;;;;;;16.73;13.17;;;19.50;99.90;;;;;;5021852;28;20182;-67
2023/09/12 02:13:42;;;;;;;17.50;14.60;;;19.50;99.90;;;;;;5009215;28;20340;-66
2023/09/12 02:16:07;;;;;;;13.57;12.47;;;19.50;99.90;;;;;;5012194;28;20198;-67
2023/09/12 02:18:33;;;;;;;15.63;13.57;;;19.50;99.90;;;;;;5009879;28;20219;-67
2023/09/12 02:20:58;;;;;;;15.43;13.87;;;19.50;99.90;;;;;;5007662;28;20218;-68
2023/09/12 02:23:24;;;;;;;14.70;13.30;;;19.40;99.90;;;;;;5012321;28;20183;-66
2023/09/12 02:25:50;;;;;;;16.63;12.80;;;19.40;99.90;;;;;;5011729;28;20226;-66
2023/09/12 02:28:15;;;;;;;16.47;13.20;;;19.30;99.90;;;;;;5009911;28;20671;-68
2023/09/12 02:30:41;;;;;;;13.73;12.37;;;19.30;99.90;;;;;;5009088;28;20179;-68
2023/09/12 02:33:06;;;;;;;21.00;12.90;;;19.30;99.90;;;;;;5009619;28;20560;-66
2023/09/12 02:35:32;;;;;;;15.80;14.20;;;19.30;99.90;;;;;;5011471;28;20187;-67
2023/09/12 02:37:58;;;;;;;15.03;13.70;;;19.30;99.90;;;;;;5011138;28;20203;-67
2023/09/12 02:40:23;;;;;;;15.57;14.00;;;19.30;99.90;;;;;;5006807;28;20241;-67
2023/09/12 02:42:49;;;;;;;15.23;13.63;;;19.20;99.90;;;;;;5009720;28;20198;-67
2023/09/12 02:45:15;;;;;;;14.80;13.00;;;19.20;99.90;;;;;;5012596;28;20179;-67
2023/09/12 02:47:40;;;;;;;14.93;12.73;;;19.20;99.90;;;;;;5012491;28;20210;-67
2023/09/12 02:50:06;;;;;;;18.77;13.90;;;19.20;99.90;;;;;;5011562;28;20249;-67
2023/09/12 02:52:31;;;;;;;14.97;13.67;;;19.20;99.90;;;;;;5022353;28;20237;-69
2023/09/12 02:54:57;;;;;;;15.40;14.17;;;19.20;99.90;;;;;;5017686;28;20178;-66
2023/09/12 02:57:22;;;;;;;16.93;14.00;;;19.20;99.90;;;;;;5012600;28;20195;-67
2023/09/12 02:59:48;;;;;;;14.37;12.97;;;19.10;99.90;;;;;;5011122;28;20194;-67
2023/09/12 03:02:13;;;;;;;19.07;13.77;;;19.00;99.90;;;;;;5014889;28;20191;-68
2023/09/12 03:04:39;;;;;;;15.47;13.97;;;19.00;99.90;;;;;;5023227;28;20541;-67
2023/09/12 03:07:05;;;;;;;15.00;13.50;;;19.10;99.90;;;;;;5016451;28;20203;-67
2023/09/12 03:09:30;;;;;;;14.77;13.27;;;19.10;99.90;;;;;;5009663;28;20210;-67
2023/09/12 03:11:56;;;;;;;15.60;14.30;;;19.10;99.90;;;;;;5012041;28;20641;-68
2023/09/12 03:14:21;;;;;;;15.80;13.57;;;19.10;99.90;;;;;;5010775;28;20206;-68
2023/09/12 03:16:47;;;;;;;18.07;14.70;;;19.10;99.90;;;;;;5006062;28;20179;-68
2023/09/12 03:19:12;;;;;;;15.47;13.87;;;19.10;99.90;;;;;;5006044;28;20676;-66
2023/09/12 03:21:38;;;;;;;15.07;13.67;;;19.10;99.90;;;;;;5018988;28;20186;-67
2023/09/12 03:24:04;;;;;;;19.67;13.53;;;19.00;99.90;;;;;;5018131;28;20174;-67
2023/09/12 03:26:30;;;;;;;14.60;13.33;;;18.90;99.90;;;;;;5012558;28;20946;-69
2023/09/12 03:28:55;;;;;;;13.33;12.17;;;18.80;99.90;;;;;;5014930;28;20214;-67
2023/09/12 03:31:21;;;;;;;13.80;12.70;;;18.80;99.90;;;;;;5009662;28;20193;-67
2023/09/12 03:33:49;;;;;;;16.30;13.33;;;18.80;99.90;;;;;;5015505;28;20179;-68
2023/09/12 03:36:15;;;;;;;15.60;14.20;;;18.70;99.90;;;;;;5015993;28;20185;-69
2023/09/12 03:38:41;;;;;;;14.33;12.83;;;18.70;99.90;;;;;;5011185;28;20470;-67
2023/09/12 03:41:06;;;;;;;14.20;12.80;;;18.70;99.90;;;;;;5011437;28;20436;-67
2023/09/12 03:43:33;;;;;;;15.93;14.60;;;18.70;99.90;;;;;;5015520;28;20235;-68
2023/09/12 03:45:59;;;;;;;15.80;14.30;;;18.80;99.90;;;;;;5015899;28;20683;-67
2023/09/12 03:48:24;;;;;;;18.43;14.70;;;18.80;99.90;;;;;;5015648;28;20458;-67
2023/09/12 03:50:50;;;;;;;16.97;15.47;;;18.80;99.90;;;;;;5014954;28;20179;-68
2023/09/12 03:53:15;;;;;;;16.27;12.83;;;18.70;99.90;;;;;;5015477;28;20183;-67
2023/09/12 03:55:42;;;;;;;16.00;14.50;;;18.80;99.90;;;;;;5015627;28;20233;-67
2023/09/12 03:58:07;;;;;;;16.13;14.43;;;18.70;99.90;;;;;;5006001;28;20203;-68
2023/09/12 04:00:33;;;;;;;16.20;14.43;;;18.80;99.90;;;;;;5014723;28;20839;-68
2023/09/12 04:02:58;;;;;;;16.30;14.70;;;18.70;99.90;;;;;;5013589;28;20186;-67
2023/09/12 04:05:25;;;;;;;16.33;14.77;;;18.70;99.90;;;;;;5007347;28;20187;-68
2023/09/12 04:07:50;;;;;;;13.87;12.67;;;18.70;99.90;;;;;;5015510;28;20314;-67
2023/09/12 04:10:18;;;;;;;18.30;14.33;;;18.70;99.90;;;;;;5015202;28;20556;-68
2023/09/12 04:12:44;;;;;;;15.83;14.53;;;18.70;99.90;;;;;;5013625;28;20183;-69
2023/09/12 04:15:09;;;;;;;17.80;16.13;;;18.60;99.90;;;;;;5010862;28;20988;-67
2023/09/12 04:17:35;;;;;;;22.57;20.40;;;18.60;99.90;;;;;;5005932;28;20198;-68
2023/09/12 04:20:00;;;;;;;17.17;15.50;;;18.50;99.90;;;;;;5015113;28;20601;-69
2023/09/12 04:22:26;;;;;;;16.20;14.60;;;18.50;99.90;;;;;;5015283;28;20175;-68
2023/09/12 04:24:51;;;;;;;15.80;14.33;;;18.60;99.90;;;;;;5013971;28;20188;-68
2023/09/12 04:27:17;;;;;;;18.13;15.27;;;18.60;99.90;;;;;;5006762;28;20179;-67
2023/09/12 04:29:42;;;;;;;17.03;15.20;;;18.50;99.90;;;;;;5015009;28;20195;-67
2023/09/12 04:32:08;;;;;;;16.73;15.17;;;18.60;99.90;;;;;;5015038;28;20233;-68
2023/09/12 04:34:33;;;;;;;16.90;15.17;;;18.60;99.90;;;;;;5014672;28;20179;-67
2023/09/12 04:36:59;;;;;;;16.53;14.93;;;18.50;99.90;;;;;;5012899;28;20207;-68
2023/09/12 04:39:24;;;;;;;15.07;13.67;;;18.70;99.90;;;;;;5014535;28;20277;-68
2023/09/12 04:41:50;;;;;;;17.07;15.10;;;18.60;99.90;;;;;;5014840;28;20611;-67
2023/09/12 04:44:15;;;;;;;17.30;15.30;;;18.70;99.90;;;;;;5014599;28;20179;-67
2023/09/12 04:46:41;;;;;;;20.00;15.20;;;18.60;99.90;;;;;;5014790;28;20547;-67
2023/09/12 04:49:06;;;;;;;18.07;15.70;;;18.60;99.90;;;;;;5005158;28;20218;-67
2023/09/12 04:51:32;;;;;;;15.97;14.37;;;18.60;99.90;;;;;;5014639;28;20178;-67
2023/09/12 04:53:57;;;;;;;17.40;15.53;;;18.50;99.90;;;;;;5014397;28;20315;-68
2023/09/12 04:56:24;;;;;;;17.20;15.60;;;18.60;99.90;;;;;;5014500;28;20180;-67
2023/09/12 04:58:50;;;;;;;19.73;16.13;;;18.60;99.90;;;;;;5013414;28;20326;-67
2023/09/12 05:01:16;;;;;;;17.30;15.70;;;18.60;99.90;;;;;;5004743;28;20873;-67
2023/09/12 05:03:42;;;;;;;17.67;15.87;;;18.70;99.90;;;;;;5013992;28;20434;-67
2023/09/12 05:06:07;;;;;;;17.73;16.03;;;18.60;99.90;;;;;;5014487;28;20521;-67
2023/09/12 05:08:33;;;;;;;16.30;14.80;;;18.60;99.90;;;;;;5038816;22;20222;-63
2023/09/12 05:10:58;;;;;;;17.73;15.87;;;18.70;99.90;;;;;;5011925;28;20182;-64
2023/09/12 05:13:24;;;;;;;17.17;15.47;;;18.70;99.90;;;;;;5011412;28;20262;-64
2023/09/12 05:15:50;;;;;;;17.10;15.43;;;18.80;99.90;;;;;;5014080;28;20627;-66
2023/09/12 05:18:15;;;;;;;18.73;17.03;;;18.80;99.90;;;;;;5014120;28;20222;-66
2023/09/12 05:20:41;;;;;;;19.60;17.50;;;18.90;99.90;;;;;;5013703;28;20567;-66
2023/09/12 05:23:06;;;;;;;16.90;15.13;;;19.00;99.90;;;;;;5011962;28;20266;-66
2023/09/12 05:25:32;;;;;;;16.00;14.40;;;19.10;99.90;;;;;;5013656;28;20179;-66
2023/09/12 05:27:57;;;;;;;16.20;14.50;;;19.20;99.90;;;;;;5013993;28;20205;-66
2023/09/12 05:30:23;;;;;;;15.60;14.20;;;19.30;99.90;;;;;;5013798;28;20191;-64
2023/09/12 05:32:48;;;;;;;18.03;14.87;;;19.40;99.90;;;;;;5013586;28;20667;-64
2023/09/12 05:35:14;;;;;;;16.53;14.93;;;19.50;99.90;;;;;;5012570;28;20182;-66
2023/09/12 05:37:39;;;;;;;15.77;14.27;;;19.60;99.90;;;;;;5014183;28;20203;-67
2023/09/12 05:40:06;;;;;;;21.37;15.67;;;19.70;99.90;;;;;;5013591;28;20294;-67
2023/09/12 05:42:31;;;;;;;17.30;15.80;;;19.80;99.90;;;;;;5013286;28;20178;-67
2023/09/12 05:44:57;;;;;;;14.90;13.47;;;20.00;99.90;;;;;;5013409;28;20512;-64
2023/09/12 05:47:23;;;;;;;16.07;14.67;;;20.20;99.90;;;;;;5012088;28;20179;-64
2023/09/12 05:49:48;;;;;;;16.87;15.07;;;20.40;99.90;;;;;;5012277;28;20199;-64
2023/09/12 05:52:14;;;;;;;18.77;15.40;;;20.50;99.90;;;;;;5013417;28;20421;-67
2023/09/12 05:54:43;;;;;;;14.83;13.53;;;20.60;99.90;;;;;;5013018;28;20257;-67
2023/09/12 05:57:10;;;;;;;16.03;14.53;;;20.60;99.90;;;;;;5013327;28;20181;-64
2023/09/12 05:59:38;;;;;;;18.33;14.13;;;20.60;99.90;;;;;;5012096;28;20468;-64
2023/09/12 06:02:04;;;;;;;15.23;13.93;;;20.70;99.90;;;;;;5012304;28;20803;-64
2023/09/12 06:04:30;;;;;;;19.63;14.77;;;20.80;99.90;;;;;;5012826;28;20428;-64
2023/09/12 06:06:55;;;;;;;15.13;13.83;;;20.90;99.90;;;;;;5013125;28;20422;-64
2023/09/12 06:09:21;;;;;;;16.00;14.40;;;20.90;99.90;;;;;;5012929;28;20214;-64
2023/09/12 06:11:46;;;;;;;16.17;14.63;;;21.00;99.90;;;;;;5012151;28;20182;-64
2023/09/12 06:14:12;;;;;;;15.07;13.77;;;21.20;99.90;;;;;;5012896;28;20182;-64
2023/09/12 06:16:37;;;;;;;19.33;14.03;;;21.30;99.90;;;;;;5013134;28;20253;-64
2023/09/12 06:19:03;;;;;;;17.33;15.53;;;21.40;99.90;;;;;;5012840;28;20241;-64
2023/09/12 06:21:28;;;;;;;16.17;14.37;;;21.60;99.90;;;;;;5011922;28;20170;-64
2023/09/12 06:24:15;;;;;;;16.10;13.97;;;21.70;99.90;;;;;;5006459;28;20186;-64
2023/09/12 06:26:41;;;;;;;13.77;12.63;;;21.80;99.90;;;;;;5007874;28;20217;-65
2023/09/12 06:29:07;;;;;;;16.80;13.00;;;22.00;99.90;;;;;;5012738;28;20445;-65
2023/09/12 06:31:33;;;;;;;15.97;13.23;;;22.10;99.90;;;;;;5012994;28;20178;-65
2023/09/12 06:33:58;;;;;;;14.33;12.93;;;22.10;99.90;;;;;;5002740;28;20437;-65
2023/09/12 06:36:29;;;;;;;15.70;14.03;;;22.10;99.90;;;;;;5011984;28;20492;-65
2023/09/12 06:38:55;;;;;;;14.73;13.53;;;22.10;99.90;;;;;;5012712;28;20210;-65
2023/09/12 06:41:21;;;;;;;13.83;12.43;;;22.20;99.90;;;;;;5010564;28;20836;-65
2023/09/12 06:43:47;;;;;;;14.50;13.10;;;22.40;99.90;;;;;;5006375;28;20509;-65
2023/09/12 06:46:14;;;;;;;14.53;13.07;;;22.40;99.90;;;;;;5011768;28;20640;-64
2023/09/12 06:48:40;;;;;;;15.23;13.87;;;22.50;99.90;;;;;;5004275;28;20651;-65
2023/09/12 06:51:08;;;;;;;14.83;13.53;;;22.60;99.90;;;;;;5012108;28;20509;-65
2023/09/12 06:53:33;;;;;;;14.40;13.13;;;22.70;99.90;;;;;;5011661;28;20214;-65
2023/09/12 06:55:59;;;;;;;14.93;13.53;;;22.80;99.90;;;;;;5012486;28;20909;-65
2023/09/12 06:58:25;;;;;;;16.90;13.90;;;22.80;99.90;;;;;;5010476;28;20214;-65
2023/09/12 07:00:51;;;;;;;14.13;12.53;;;22.80;99.90;;;;;;5008082;28;20567;-65
2023/09/12 07:03:16;;;;;;;16.43;14.83;;;22.80;99.90;;;;;;5011624;28;20491;-65
2023/09/12 07:05:42;;;;;;;22.70;14.37;;;22.90;99.90;;;;;;5012405;28;20645;-65
2023/09/12 07:08:08;;;;;;;14.80;12.27;;;23.20;99.90;;;;;;5012553;28;20309;-65
2023/09/12 07:10:34;;;;;;;14.97;13.07;;;23.50;99.90;;;;;;5011345;28;20225;-65
2023/09/12 07:12:59;;;;;;;14.60;13.23;;;23.90;99.90;;;;;;5010916;28;20455;-65
2023/09/12 07:15:25;;;;;;;15.03;12.87;;;24.20;99.90;;;;;;5010809;28;20667;-65
2023/09/12 07:17:50;;;;;;;14.03;12.83;;;24.30;99.90;;;;;;5011850;28;20226;-65
2023/09/12 07:20:17;;;;;;;13.60;12.50;;;24.30;99.90;;;;;;5010198;28;20199;-65
2023/09/12 07:22:43;;;;;;;14.13;12.90;;;24.30;99.90;;;;;;5010890;28;20178;-65
2023/09/12 07:25:11;;;;;;;13.97;12.57;;;24.50;99.90;;;;;;5011926;28;20454;-65
2023/09/12 07:27:37;;;;;;;15.07;12.40;;;24.90;99.90;;;;;;5012040;28;20293;-65
2023/09/12 07:30:04;;;;;;;15.77;13.17;;;25.00;99.90;;;;;;5011937;28;20468;-65
2023/09/12 07:32:29;;;;;;;20.87;18.83;;;25.20;99.90;;;;;;5009950;28;20214;-65
2023/09/12 07:34:55;;;;;;;15.53;14.07;;;25.40;99.90;;;;;;5011606;28;20471;-65
2023/09/12 07:37:20;;;;;;;16.53;13.87;;;25.70;99.90;;;;;;5011797;28;20175;-65
2023/09/12 07:39:46;;;;;;;13.70;12.57;;;25.90;99.90;;;;;;5011742;28;20195;-65
2023/09/12 07:42:11;;;;;;;14.87;13.43;;;26.10;99.90;;;;;;5010189;28;20175;-65
2023/09/12 07:44:37;;;;;;;13.90;12.70;;;26.30;99.90;;;;;;5011449;28;20175;-65
2023/09/12 07:47:03;;;;;;;14.80;11.20;;;26.60;99.90;;;;;;5011773;28;20225;-65
2023/09/12 07:49:29;;;;;;;14.17;12.93;;;27.00;99.90;;;;;;5011691;28;20782;-65
2023/09/12 07:51:57;;;;;;;12.97;11.97;;;27.10;99.90;;;;;;5011812;28;20793;-65
2023/09/12 07:54:22;;;;;;;13.00;11.97;;;27.00;99.90;;;;;;5010109;28;20214;-65
2023/09/12 07:56:48;;;;;;;16.53;12.23;;;27.20;99.90;;;;;;5011932;28;20508;-65
2023/09/12 07:59:14;;;;;;;14.97;13.40;;;27.30;99.90;;;;;;5011673;28;20552;-65
2023/09/12 08:01:40;;;;;;;13.83;12.70;;;27.50;99.90;;;;;;5011792;28;20282;-65
2023/09/12 08:04:05;;;;;;;14.13;12.90;;;27.50;99.90;;;;;;5011554;28;20461;-65
2023/09/12 08:06:32;;;;;;;13.23;11.93;;;27.50;99.90;;;;;;5010504;28;20196;-65
2023/09/12 08:08:58;;;;;;;18.60;13.60;;;27.80;99.90;;;;;;5011346;28;20202;-65
2023/09/12 08:11:23;;;;;;;13.40;12.00;;;28.50;99.90;;;;;;5012362;28;20437;-65
2023/09/12 08:13:49;;;;;;;13.90;12.90;;;28.70;99.90;;;;;;5015021;28;20179;-65
2023/09/12 08:16:15;;;;;;;12.60;11.60;;;28.30;99.90;;;;;;5015272;28;20171;-65
2023/09/12 08:18:41;;;;;;;15.47;13.10;;;28.00;99.90;;;;;;5014305;28;20710;-65
2023/09/12 08:21:06;;;;;;;13.57;12.63;;;27.60;99.90;;;;;;5015202;28;20171;-65
2023/09/12 08:23:32;;;;;;;13.60;12.30;;;27.30;99.90;;;;;;5014928;28;20171;-65
2023/09/12 08:25:57;;;;;;;14.70;13.07;;;27.40;99.90;;;;;;5013049;28;20696;-65
2023/09/12 08:28:23;;;;;;;14.50;13.07;;;27.30;99.90;;;;;;5014070;28;20229;-65
2023/09/12 08:30:49;;;;;;;17.40;12.00;;;27.20;99.90;;;;;;5014790;28;20203;-65
2023/09/12 08:33:14;;;;;;;13.63;12.43;;;27.30;99.90;;;;;;5014767;28;20174;-65
2023/09/12 08:35:40;;;;;;;13.97;12.77;;;27.90;99.90;;;;;;5014213;28;20175;-65
2023/09/12 08:38:06;;;;;;;14.63;12.70;;;28.60;99.90;;;;;;5014198;28;20201;-65
2023/09/12 08:40:35;;;;;;;12.47;11.37;;;29.20;99.90;;;;;;5014580;28;20329;-65
2023/09/12 08:43:00;;;;;;;12.77;11.63;;;30.10;99.90;;;;;;5013922;28;20422;-65
2023/09/12 08:45:26;;;;;;;14.40;13.10;;;31.10;99.90;;;;;;5014642;28;20475;-65
2023/09/12 08:47:53;;;;;;;13.83;12.70;;;32.00;99.90;;;;;;5013498;28;20269;-66
2023/09/12 08:50:23;;;;;;;12.53;11.63;;;32.70;97.80;;;;;;5014196;28;20209;-66
2023/09/12 08:52:48;;;;;;;14.03;12.83;;;33.00;95.90;;;;;;5014714;28;20425;-66
2023/09/12 08:55:14;;;;;;;14.30;13.20;;;33.20;94.80;;;;;;5014331;28;20922;-66
2023/09/12 08:57:44;;;;;;;13.40;12.17;;;33.30;93.30;;;;;;5013732;28;20214;-65
2023/09/12 09:00:14;;;;;;;12.60;11.70;;;32.90;93.60;;;;;;5014306;28;20269;-65
2023/09/12 09:02:43;;;;;;;12.63;11.70;;;33.00;92.80;;;;;;5014107;28;20422;-66
2023/09/12 09:05:10;;;;;;;13.40;12.30;;;33.50;92.30;;;;;;5014202;28;20512;-66
2023/09/12 09:07:37;;;;;;;13.97;12.93;;;34.00;90.90;;;;;;5013316;28;20445;-66
2023/09/12 09:10:09;;;;;;;14.10;13.00;;;34.50;88.90;;;;;;5013868;28;20957;-66
2023/09/12 09:12:35;;;;;;;13.20;12.30;;;34.70;86.40;;;;;;5013847;28;20841;-66
2023/09/12 09:15:21;;;;;;;13.20;12.30;;;35.20;82.70;;;;;;5014171;28;20501;-66
2023/09/12 09:17:47;;;;;;;12.70;11.60;;;35.60;82.00;;;;;;5014022;28;21026;-66
2023/09/12 09:20:31;;;;;;;13.60;12.33;;;35.50;78.00;;;;;;5012900;28;20845;-66
2023/09/12 09:23:10;;;;;;;13.50;12.20;;;34.80;79.20;;;;;;5007230;28;20426;-66
2023/09/12 09:25:39;;;;;;;13.30;12.00;;;35.20;78.00;;;;;;5013803;28;20935;-66
2023/09/12 09:28:26;;;;;;;13.10;12.10;;;36.40;74.50;;;;;;5013941;28;20424;-66
2023/09/12 09:30:54;;;;;;;12.23;11.33;;;37.40;69.40;;;;;;5012760;28;20492;-66
2023/09/12 09:33:20;;;;;;;12.43;10.97;;;38.30;64.30;;;;;;5013265;28;20437;-66
2023/09/12 09:35:47;;;;;;;12.17;11.20;;;39.00;61.70;;;;;;5013707;28;20959;-66
2023/09/12 09:38:16;;;;;;;11.90;10.90;;;39.30;58.00;;;;;;5013192;28;20454;-66
2023/09/12 09:40:44;;;;;;;12.20;11.43;;;39.80;57.00;;;;;;5013688;28;20434;-65
2023/09/12 09:43:10;;;;;;;11.90;10.83;;;40.50;53.60;;;;;;5011963;28;20433;-65
2023/09/12 09:45:44;;;;;;;12.20;11.07;;;40.70;52.40;;;;;;5013448;28;20848;-64
2023/09/12 09:48:17;;;;;;;12.67;11.33;;;39.50;51.80;;;;;;5013595;28;20181;-65
2023/09/12 09:50:42;;;;;;;12.37;11.17;;;38.10;52.80;;;;;;5013344;28;20532;-65
2023/09/12 09:53:10;;;;;;;16.50;10.57;;;39.20;52.00;;;;;;5013292;28;20529;-65
2023/09/12 09:55:35;;;;;;;11.77;10.57;;;40.50;50.80;;;;;;5011724;28;20170;-65
2023/09/12 09:58:01;;;;;;;12.23;11.03;;;40.20;49.50;;;;;;5013255;28;20453;-65
2023/09/12 10:00:29;;;;;;;11.73;10.83;;;40.20;49.40;;;;;;5013252;28;20190;-65
2023/09/12 10:02:55;;;;;;;10.40;9.70;;;41.30;48.50;;;;;;5012853;28;20422;-64
2023/09/12 10:05:22;;;;;;;11.07;10.27;;;42.20;46.20;;;;;;5012118;28;20441;-64
2023/09/12 10:07:50;;;;;;;11.60;10.50;;;41.20;45.30;;;;;;5013108;28;20452;-65
2023/09/12 10:10:18;;;;;;;11.90;10.80;;;41.60;45.50;;;;;;5013027;28;20450;-65
2023/09/12 10:12:51;;;;;;;10.60;9.80;;;42.80;44.50;;;;;;5012836;28;20453;-65
2023/09/12 10:15:19;;;;;;;11.93;10.87;;;43.60;43.00;;;;;;5013181;28;20413;-65
2023/09/12 10:17:50;;;;;;;12.40;11.20;;;43.10;41.70;;;;;;5012223;28;20461;-65
2023/09/12 10:20:21;;;;;;;14.40;11.97;;;41.30;44.00;;;;;;5013114;28;20559;-66
2023/09/12 10:23:08;;;;;;;18.17;16.73;;;41.30;44.90;;;;;;5012620;28;20548;-66
2023/09/12 10:25:36;;;;;;;13.57;11.80;;;41.30;44.40;;;;;;5010353;28;20438;-65
2023/09/12 10:28:04;;;;;;;10.67;9.97;;;41.90;43.50;;;;;;5012631;28;20793;-65
2023/09/12 10:30:31;;;;;;;11.27;10.47;;;42.90;43.50;;;;;;5012825;28;20438;-65
2023/09/12 10:32:57;;;;;;;11.90;10.77;;;43.90;41.00;;;;;;5012446;28;20425;-65
2023/09/12 10:35:23;;;;;;;15.50;14.40;;;44.60;40.70;;;;;;5009349;28;20437;-65
2023/09/12 10:37:50;;;;;;;10.17;9.27;;;45.40;41.20;;;;;;5012466;28;20449;-65
2023/09/12 10:40:17;;;;;;;11.07;9.97;;;45.90;39.60;;;;;;5006597;28;20199;-65
2023/09/12 10:42:44;;;;;;;9.80;8.93;;;46.80;39.00;;;;;;5009427;28;20414;-65
2023/09/12 10:45:10;;;;;;;10.27;9.67;;;46.50;38.00;;;;;;5011919;28;20441;-66
2023/09/12 10:47:36;;;;;;;9.80;9.10;;;46.20;37.10;;;;;;5010184;28;20441;-66
2023/09/12 10:50:03;;;;;;;10.40;9.40;;;46.00;36.80;;;;;;5011588;28;20585;-66
2023/09/12 10:52:29;;;;;;;10.70;9.73;;;45.90;36.30;;;;;;5010085;28;20417;-66
2023/09/12 10:54:55;;;;;;;10.13;9.33;;;46.30;36.10;;;;;;5012285;28;20418;-66
2023/09/12 10:57:20;;;;;;;9.43;8.83;;;46.50;35.40;;;;;;5010735;28;20174;-66
2023/09/12 11:00:03;;;;;;;12.00;11.03;;;46.50;35.50;;;;;;5009511;28;20199;-66
2023/09/12 11:02:39;;;;;;;10.20;9.50;;;47.10;35.30;;;;;;5005170;28;20183;-66
2023/09/12 11:05:06;;;;;;;10.57;9.70;;;47.30;34.70;;;;;;5011856;28;20504;-66
2023/09/12 11:07:53;;;;;;;11.23;10.33;;;47.80;34.00;;;;;;5012169;28;20505;-66
2023/09/12 11:10:21;;;;;;;10.57;9.83;;;47.60;34.10;;;;;;5001044;28;20501;-66
2023/09/12 11:12:51;;;;;;;10.63;9.77;;;47.20;33.70;;;;;;5011907;28;20949;-66
2023/09/12 11:15:20;;;;;;;11.40;10.30;;;46.60;33.80;;;;;;5012167;28;20488;-65
2023/09/12 11:17:59;;;;;;;10.03;9.23;;;46.70;33.60;;;;;;5012164;28;20453;-65
2023/09/12 11:20:24;;;;;;;10.87;10.07;;;46.30;33.30;;;;;;5012081;28;20516;-65
2023/09/12 11:22:50;;;;;;;10.97;10.07;;;45.20;33.60;;;;;;5008308;28;20512;-65
2023/09/12 11:25:23;;;;;;;11.40;10.40;;;45.40;34.30;;;;;;5011944;28;20171;-65
2023/09/12 11:27:51;;;;;;;10.50;9.80;;;46.80;33.00;;;;;;5011893;28;20186;-65
2023/09/12 11:30:18;;;;;;;12.47;11.23;;;47.50;32.50;;;;;;5011940;28;20472;-65
2023/09/12 11:32:45;;;;;;;9.20;8.67;;;47.80;31.60;;;;;;5012071;28;20421;-65
2023/09/12 11:35:12;;;;;;;10.10;9.40;;;46.80;31.10;;;;;;5007382;28;21064;-65
2023/09/12 11:37:38;;;;;;;11.87;10.90;;;47.00;31.40;;;;;;5011658;28;20457;-65
2023/09/12 11:40:26;;;;;;;10.37;9.70;;;47.30;30.80;;;;;;5011782;28;20441;-66
2023/09/12 11:42:52;;;;;;;10.93;10.10;;;47.10;30.60;;;;;;5011768;28;20365;-65
2023/09/12 11:45:21;;;;;;;10.43;9.83;;;47.30;30.10;;;;;;5011274;28;20437;-65
2023/09/12 11:47:47;;;;;;;9.97;8.73;;;47.60;29.70;;;;;;5014897;28;20767;-65
2023/09/12 11:50:39;;;;;;;11.40;10.50;;;48.30;29.30;;;;;;5011927;28;20803;-65
2023/09/12 11:53:06;;;;;;;10.03;9.20;;;48.80;28.40;;;;;;5002643;28;20421;-65
2023/09/12 11:55:51;;;;;;;10.20;9.30;;;49.10;28.10;;;;;;5015599;28;20503;-65
2023/09/12 11:58:18;;;;;;;13.03;11.80;;;49.30;27.70;;;;;;5015602;28;20449;-65
2023/09/12 12:00:57;;;;;;;11.77;10.97;;;49.40;28.70;;;;;;5014517;28;20832;-66
2023/09/12 12:03:25;;;;;;;13.23;12.17;;;50.10;28.40;;;;;;5015102;28;20751;-66
2023/09/12 12:05:51;;;;;;;11.97;11.17;;;50.10;28.00;;;;;;5015549;28;20500;-65
2023/09/12 12:08:18;;;;;;;11.07;10.27;;;49.40;27.90;;;;;;5015463;28;20858;-65
2023/09/12 12:10:44;;;;;;;12.50;11.67;;;47.70;28.60;;;;;;5015215;28;20835;-65
2023/09/12 12:13:16;;;;;;;11.80;10.97;;;47.50;28.90;;;;;;5014379;28;20446;-65
2023/09/12 12:15:42;;;;;;;11.30;10.50;;;48.90;28.20;;;;;;5007570;28;20171;-65
2023/09/12 12:18:08;;;;;;;10.80;10.00;;;48.90;27.80;;;;;;5015161;28;20461;-65
2023/09/12 12:20:33;;;;;;;11.27;10.27;;;48.50;27.90;;;;;;5015271;28;20187;-65
2023/09/12 12:22:59;;;;;;;9.30;8.60;;;48.50;28.20;;;;;;5014261;28;20180;-65
2023/09/12 12:25:25;;;;;;;9.87;9.20;;;48.10;27.70;;;;;;5014924;28;20197;-65
2023/09/12 12:27:50;;;;;;;11.43;10.60;;;48.20;27.60;;;;;;5015036;28;20171;-65